createdAt,value
2018-11-22T00:00:17.820Z,93.400002
2018-11-22T00:05:20.043Z,93.5
2018-11-22T00:10:22.336Z,93.599998
2018-11-22T00:15:24.674Z,93.800003
2018-11-22T00:20:26.991Z,94.400002
2018-11-22T00:25:29.254Z,95
2018-11-22T00:30:31.707Z,95.900002
2018-11-22T00:35:33.840Z,96.099998
2018-11-22T00:40:36.051Z,96.199997
2018-11-22T00:45:38.455Z,96
2018-11-22T00:50:40.874Z,96.5
2018-11-22T00:55:43.038Z,96.599998
2018-11-22T01:00:45.327Z,96.699997
2018-11-22T01:05:47.546Z,96.699997
2018-11-22T01:10:49.862Z,97.300003
2018-11-22T01:15:52.316Z,97.800003
2018-11-22T01:20:54.505Z,97.199997
2018-11-22T01:25:56.783Z,98.199997
2018-11-22T01:30:59.086Z,99.099998
2018-11-22T01:36:01.400Z,99.199997
2018-11-22T01:41:03.631Z,99.900002
2018-11-22T01:46:05.944Z,99.900002
2018-11-22T01:51:08.297Z,99.900002
2018-11-22T01:56:10.465Z,99.900002
2018-11-22T02:01:12.784Z,99.900002
2018-11-22T02:06:15.307Z,99.900002
2018-11-22T02:11:17.443Z,99.900002
2018-11-22T02:16:19.650Z,99.900002
2018-11-22T02:21:22.033Z,99.900002
2018-11-22T02:26:24.333Z,99.900002
2018-11-22T02:31:26.567Z,99.900002
2018-11-22T02:36:28.908Z,99.900002
2018-11-22T02:41:31.363Z,99.900002
2018-11-22T02:46:33.571Z,99.900002
2018-11-22T02:51:35.769Z,99.900002
2018-11-22T02:56:38.176Z,99.900002
2018-11-22T03:01:40.440Z,99.900002
2018-11-22T03:06:43.654Z,99.900002
2018-11-22T03:11:45.123Z,99.900002
2018-11-22T03:16:47.224Z,99.900002
2018-11-22T03:21:49.524Z,99.900002
2018-11-22T03:26:53.634Z,99.900002
2018-11-22T03:31:54.143Z,99.900002
2018-11-22T03:36:56.373Z,99.900002
2018-11-22T03:41:58.751Z,99.900002
2018-11-22T03:47:01.015Z,99.900002
2018-11-22T03:52:03.272Z,99.900002
2018-11-22T03:57:05.528Z,99.900002
2018-11-22T04:02:08.065Z,99.900002
2018-11-22T04:07:10.103Z,99.900002
2018-11-22T04:12:12.484Z,99.900002
2018-11-22T04:17:14.812Z,99.900002
2018-11-22T04:22:17.201Z,99.900002
2018-11-22T04:27:19.371Z,99.900002
2018-11-22T04:32:21.796Z,99.900002
2018-11-22T04:37:23.889Z,99.900002
2018-11-22T04:42:27.565Z,99.900002
2018-11-22T04:47:28.444Z,99.900002
2018-11-22T04:52:30.948Z,99.900002
2018-11-22T04:57:33.146Z,99.900002
2018-11-22T05:02:35.349Z,99.900002
2018-11-22T05:07:37.749Z,99.900002
2018-11-22T05:12:40.193Z,99.900002
2018-11-22T05:17:44.180Z,99.900002
2018-11-22T05:22:44.631Z,99.900002
2018-11-22T05:27:46.994Z,99.900002
2018-11-22T05:32:49.216Z,99.900002
2018-11-22T05:37:51.524Z,99.900002
2018-11-22T05:42:54.329Z,99.900002
2018-11-22T05:47:56.132Z,99.900002
2018-11-22T05:53:00.099Z,99.900002
2018-11-22T05:58:00.663Z,99.900002
2018-11-22T06:03:03.026Z,99.900002
2018-11-22T06:08:05.268Z,99.900002
2018-11-22T06:13:07.545Z,99.900002
2018-11-22T06:18:09.867Z,99.900002
2018-11-22T06:23:12.184Z,99.900002
2018-11-22T06:28:14.437Z,99.900002
2018-11-22T06:33:16.757Z,99.900002
2018-11-22T06:38:19.007Z,99.900002
2018-11-22T06:43:21.230Z,99.900002
2018-11-22T06:48:23.603Z,99.900002
2018-11-22T06:53:25.963Z,99.900002
2018-11-22T06:58:28.311Z,99.900002
2018-11-22T07:03:30.393Z,99.900002
2018-11-22T07:08:32.708Z,99.900002
2018-11-22T07:13:35.152Z,99.900002
2018-11-22T07:18:37.306Z,99.900002
2018-11-22T07:23:39.702Z,99.900002
2018-11-22T07:28:41.877Z,99.900002
2018-11-22T07:33:44.221Z,99.900002
2018-11-22T07:38:46.534Z,99.900002
2018-11-22T07:43:50.087Z,99.900002
2018-11-22T07:48:51.121Z,99.900002
2018-11-22T07:53:53.331Z,99.900002
2018-11-22T07:58:57.968Z,99.900002
2018-11-22T08:03:58.045Z,99.900002
2018-11-22T08:09:00.282Z,99.900002
2018-11-22T08:14:02.637Z,99.900002
2018-11-22T08:19:04.912Z,99.900002
2018-11-22T08:24:07.186Z,99.900002
2018-11-22T08:29:09.457Z,99.900002
2018-11-22T08:34:11.729Z,99.900002
2018-11-22T08:39:14.104Z,99.900002
2018-11-22T08:44:16.534Z,99.900002
2018-11-22T08:49:18.751Z,99.900002
2018-11-22T08:54:21.021Z,99.900002
2018-11-22T08:59:23.231Z,99.900002
2018-11-22T09:04:55.519Z,99.900002
2018-11-22T09:09:27.951Z,99.900002
2018-11-22T09:14:30.219Z,99.900002
2018-11-22T09:19:32.566Z,99.900002
2018-11-22T09:24:34.819Z,99.900002
2018-11-22T09:29:39.603Z,99.900002
2018-11-22T09:34:39.361Z,99.900002
2018-11-22T09:39:41.791Z,99.5
2018-11-22T09:44:43.994Z,99
2018-11-22T09:49:46.314Z,98.800003
2018-11-22T09:54:48.532Z,97.199997
2018-11-22T09:59:50.784Z,97.300003
2018-11-22T10:04:53.192Z,97
2018-11-22T10:09:55.428Z,94.900002
2018-11-22T10:14:57.545Z,93.400002
2018-11-22T10:19:59.860Z,92.900002
2018-11-22T10:25:02.263Z,91.199997
2018-11-22T10:30:04.733Z,91.5
2018-11-22T10:35:06.924Z,90.599998
2018-11-22T10:40:09.220Z,92.699997
2018-11-22T10:45:11.388Z,90
2018-11-22T10:50:13.780Z,86.300003
2018-11-22T10:55:16.505Z,93
2018-11-22T11:00:18.340Z,83.800003
2018-11-22T11:05:20.752Z,85.099998
2018-11-22T11:10:22.811Z,83.699997
2018-11-22T11:15:25.289Z,82.5
2018-11-22T11:20:28.943Z,85.099998
2018-11-22T11:25:29.920Z,80.099998
2018-11-22T11:30:33.351Z,77.300003
2018-11-22T11:35:34.304Z,74.800003
2018-11-22T11:40:36.607Z,71.300003
2018-11-22T11:45:38.971Z,67.800003
2018-11-22T11:50:41.277Z,66.900002
2018-11-22T11:55:43.545Z,66
2018-11-22T12:05:48.393Z,72.199997
2018-11-22T12:10:50.309Z,77.599998
2018-11-22T12:15:52.744Z,78.199997
2018-11-22T12:20:55.090Z,77.099998
2018-11-22T12:25:57.283Z,78.199997
2018-11-22T12:31:06.392Z,78.900002
2018-11-22T12:36:01.972Z,79.099998
2018-11-22T12:41:04.201Z,78.5
2018-11-22T12:46:07.876Z,80
2018-11-22T12:51:09.047Z,80.300003
2018-11-22T12:56:11.108Z,79.800003
2018-11-22T13:01:13.248Z,79.099998
2018-11-22T13:06:15.615Z,77.800003
2018-11-22T13:11:17.862Z,79.800003
2018-11-22T13:16:20.243Z,80.099998
2018-11-22T13:21:22.466Z,80.5
2018-11-22T13:26:24.743Z,80.300003
2018-11-22T13:31:27.201Z,78.400002
2018-11-22T13:36:29.390Z,79.400002
2018-11-22T13:41:31.688Z,81.199997
2018-11-22T13:46:34.003Z,79
2018-11-22T13:51:36.759Z,78.900002
2018-11-22T13:56:38.501Z,77.900002
2018-11-22T14:01:40.915Z,79.699997
2018-11-22T14:06:43.215Z,77.699997
2018-11-22T14:11:45.448Z,76.599998
2018-11-22T14:16:47.772Z,75.199997
2018-11-22T14:21:50.101Z,76.699997
2018-11-22T14:26:52.455Z,76.300003
2018-11-22T14:31:54.627Z,76.900002
2018-11-22T14:36:56.829Z,77.400002
2018-11-22T14:41:59.289Z,78.099998
2018-11-22T14:47:01.594Z,80.5
2018-11-22T14:52:03.785Z,79.800003
2018-11-22T14:57:06.026Z,80.599998
2018-11-22T15:02:08.389Z,81.099998
2018-11-22T15:07:10.775Z,82.199997
2018-11-22T15:12:12.974Z,82.699997
2018-11-22T15:17:15.272Z,83.300003
2018-11-22T15:22:17.481Z,84.699997
2018-11-22T15:27:19.847Z,85.099998
2018-11-22T15:32:22.186Z,84.400002
2018-11-22T15:37:24.450Z,85.400002
2018-11-22T15:47:29.017Z,87.300003
2018-11-22T15:52:31.373Z,87.800003
2018-11-22T15:57:34.786Z,89.900002
2018-11-22T16:02:36.119Z,91.199997
2018-11-22T16:07:38.187Z,91.5
2018-11-22T16:12:40.515Z,91.5
2018-11-22T16:17:42.911Z,91
2018-11-22T16:22:45.060Z,91.099998
2018-11-22T16:27:47.375Z,90.400002
2018-11-22T16:32:49.703Z,91
2018-11-22T16:37:52.082Z,91.5
2018-11-22T16:42:54.226Z,91.400002
2018-11-22T16:47:56.591Z,90.5
2018-11-22T16:52:58.839Z,89.699997
2018-11-22T16:58:01.189Z,90.199997
2018-11-22T17:03:03.352Z,90.5
2018-11-22T17:08:05.704Z,90.699997
2018-11-22T17:13:07.986Z,90.599998
2018-11-22T17:18:10.315Z,89.800003
2018-11-22T17:23:12.658Z,88.5
2018-11-22T17:28:14.941Z,88.599998
2018-11-22T17:33:18.288Z,89
2018-11-22T17:38:19.481Z,90.199997
2018-11-22T17:43:21.748Z,90.199997
2018-11-22T17:48:24.143Z,90.599998
2018-11-22T17:53:26.392Z,91.400002
2018-11-22T17:58:29.052Z,90.900002
2018-11-22T18:03:30.934Z,92.199997
2018-11-22T18:08:33.335Z,92.5
2018-11-22T18:13:35.665Z,92.699997
2018-11-22T18:18:37.814Z,93
2018-11-22T18:23:40.208Z,93.300003
2018-11-22T18:28:42.429Z,95.5
2018-11-22T18:33:44.731Z,96.699997
2018-11-22T18:38:47.004Z,96.599998
2018-11-22T18:43:49.433Z,98.400002
2018-11-22T18:48:51.608Z,98.699997
2018-11-22T18:53:56.138Z,99.900002
2018-11-22T18:58:56.187Z,99.900002
2018-11-22T19:03:58.629Z,99.900002
2018-11-22T19:09:00.744Z,99.900002
2018-11-22T19:14:03.113Z,99.900002
2018-11-22T19:19:05.412Z,99.900002
2018-11-22T19:24:07.675Z,99.900002
2018-11-22T19:29:10.044Z,99.900002
2018-11-22T19:34:12.223Z,99.900002
2018-11-22T19:39:14.663Z,99.900002
2018-11-22T19:44:16.885Z,99.900002
2018-11-22T19:49:19.082Z,99.900002
2018-11-22T19:54:21.458Z,99.900002
2018-11-22T19:59:23.650Z,99.900002
2018-11-22T20:04:25.943Z,99.900002
2018-11-22T20:09:29.139Z,99.900002
2018-11-22T20:14:30.600Z,99.900002
2018-11-22T20:19:32.948Z,99.900002
2018-11-22T20:24:35.202Z,99.900002
2018-11-22T20:29:37.468Z,99.900002
2018-11-22T20:34:39.779Z,99.900002
2018-11-22T20:39:42.110Z,99.900002
2018-11-22T20:44:44.401Z,99.900002
2018-11-22T20:49:46.623Z,99.900002
2018-11-22T20:54:49.013Z,99.900002
2018-11-22T20:59:51.155Z,99.900002
2018-11-22T21:04:53.546Z,99.900002
2018-11-22T21:09:55.897Z,99.900002
2018-11-22T21:14:58.108Z,99.900002
2018-11-22T21:20:00.452Z,99.900002
2018-11-22T21:25:02.646Z,99.900002
2018-11-22T21:30:05.021Z,99.900002
2018-11-22T21:35:07.333Z,99.900002
2018-11-22T21:40:09.527Z,99.900002
2018-11-22T21:45:11.905Z,99.900002
2018-11-22T21:50:14.233Z,99.900002
2018-11-22T21:55:16.527Z,99.900002
2018-11-22T22:00:18.710Z,99.900002
2018-11-22T22:05:22.563Z,99.900002
2018-11-22T22:10:23.373Z,99.900002
2018-11-22T22:15:25.647Z,99.900002
2018-11-22T22:20:27.904Z,99.900002
2018-11-22T22:25:30.299Z,99.900002
2018-11-22T22:30:32.542Z,99.900002
2018-11-22T22:35:34.757Z,99.900002
2018-11-22T22:40:37.107Z,99.900002
2018-11-22T22:45:39.495Z,99.900002
2018-11-22T22:50:41.655Z,99.900002
2018-11-22T22:55:45.558Z,99.900002
2018-11-22T23:00:46.344Z,99.900002
2018-11-22T23:05:48.603Z,99.900002
2018-11-22T23:10:52.084Z,99.900002
2018-11-22T23:15:53.125Z,99.900002
2018-11-22T23:20:55.483Z,99.900002
2018-11-22T23:25:57.793Z,99.900002
2018-11-22T23:31:00.059Z,99.900002
2018-11-22T23:36:03.490Z,99.900002
2018-11-22T23:41:04.717Z,99.900002
2018-11-22T23:46:06.937Z,99.900002
2018-11-22T23:51:09.348Z,99.900002
2018-11-22T23:56:11.501Z,99.900002
